sensor_id;sensor_type;location;lat;lon;timestamp;temperature;humidity
16503;DHT22;53067;48.114;11.694;2022-08-20T00:03:28;19.70;80.50
16503;DHT22;53067;48.114;11.694;2022-08-20T00:06:04;19.70;80.60
16503;DHT22;53067;48.114;11.694;2022-08-20T00:08:28;19.60;80.80
16503;DHT22;53067;48.114;11.694;2022-08-20T00:10:56;19.60;80.90
16503;DHT22;53067;48.114;11.694;2022-08-20T00:13:28;19.60;80.90
16503;DHT22;53067;48.114;11.694;2022-08-20T00:15:57;19.70;80.80
16503;DHT22;53067;48.114;11.694;2022-08-20T00:18:25;19.70;81.00
16503;DHT22;53067;48.114;11.694;2022-08-20T00:20:54;19.70;80.70
16503;DHT22;53067;48.114;11.694;2022-08-20T00:23:23;19.60;80.30
16503;DHT22;53067;48.114;11.694;2022-08-20T00:25:52;19.60;80.70
16503;DHT22;53067;48.114;11.694;2022-08-20T00:28:19;19.60;81.00
16503;DHT22;53067;48.114;11.694;2022-08-20T00:30:48;19.60;80.90
16503;DHT22;53067;48.114;11.694;2022-08-20T00:33:18;19.60;80.70
16503;DHT22;53067;48.114;11.694;2022-08-20T00:35:49;19.70;80.30
16503;DHT22;53067;48.114;11.694;2022-08-20T00:38:18;19.60;80.20
16503;DHT22;53067;48.114;11.694;2022-08-20T00:40:49;19.60;80.20
16503;DHT22;53067;48.114;11.694;2022-08-20T00:43:36;19.60;80.20
16503;DHT22;53067;48.114;11.694;2022-08-20T00:46:08;19.60;79.80
16503;DHT22;53067;48.114;11.694;2022-08-20T00:48:37;19.60;80.10
16503;DHT22;53067;48.114;11.694;2022-08-20T00:51:13;19.60;80.00
16503;DHT22;53067;48.114;11.694;2022-08-20T00:53:36;19.60;79.80
16503;DHT22;53067;48.114;11.694;2022-08-20T00:56:06;19.60;80.00
16503;DHT22;53067;48.114;11.694;2022-08-20T00:58:35;19.60;80.00
16503;DHT22;53067;48.114;11.694;2022-08-20T01:01:05;19.70;80.10
16503;DHT22;53067;48.114;11.694;2022-08-20T01:03:33;19.60;80.00
16503;DHT22;53067;48.114;11.694;2022-08-20T01:06:00;19.60;80.20
16503;DHT22;53067;48.114;11.694;2022-08-20T01:08:28;19.70;80.00
16503;DHT22;53067;48.114;11.694;2022-08-20T01:10:56;19.60;80.10
16503;DHT22;53067;48.114;11.694;2022-08-20T01:13:27;19.70;79.90
16503;DHT22;53067;48.114;11.694;2022-08-20T01:15:57;19.60;80.10
16503;DHT22;53067;48.114;11.694;2022-08-20T01:21:16;19.60;80.30
16503;DHT22;53067;48.114;11.694;2022-08-20T01:23:57;19.60;80.30
16503;DHT22;53067;48.114;11.694;2022-08-20T01:26:30;19.60;80.70
16503;DHT22;53067;48.114;11.694;2022-08-20T01:29:09;19.60;80.90
16503;DHT22;53067;48.114;11.694;2022-08-20T01:31:39;19.60;81.00
16503;DHT22;53067;48.114;11.694;2022-08-20T01:34:11;19.60;81.10
16503;DHT22;53067;48.114;11.694;2022-08-20T01:36:45;19.50;81.00
16503;DHT22;53067;48.114;11.694;2022-08-20T01:39:11;19.50;81.30
16503;DHT22;53067;48.114;11.694;2022-08-20T01:41:43;19.50;81.30
16503;DHT22;53067;48.114;11.694;2022-08-20T01:44:11;19.60;81.50
16503;DHT22;53067;48.114;11.694;2022-08-20T01:46:41;19.60;81.60
16503;DHT22;53067;48.114;11.694;2022-08-20T01:49:30;19.60;81.60
16503;DHT22;53067;48.114;11.694;2022-08-20T01:51:43;19.50;81.40
16503;DHT22;53067;48.114;11.694;2022-08-20T01:54:11;19.50;81.30
16503;DHT22;53067;48.114;11.694;2022-08-20T01:57:08;19.50;81.60
16503;DHT22;53067;48.114;11.694;2022-08-20T01:59:31;19.50;81.90
16503;DHT22;53067;48.114;11.694;2022-08-20T02:01:59;19.50;81.90
16503;DHT22;53067;48.114;11.694;2022-08-20T02:04:28;19.50;82.10
16503;DHT22;53067;48.114;11.694;2022-08-20T02:06:58;19.50;82.10
16503;DHT22;53067;48.114;11.694;2022-08-20T02:09:30;19.50;82.30
16503;DHT22;53067;48.114;11.694;2022-08-20T02:11:58;19.50;82.20
16503;DHT22;53067;48.114;11.694;2022-08-20T02:14:26;19.40;82.40
16503;DHT22;53067;48.114;11.694;2022-08-20T02:16:54;19.50;82.30
16503;DHT22;53067;48.114;11.694;2022-08-20T02:19:33;19.50;82.30
16503;DHT22;53067;48.114;11.694;2022-08-20T02:22:03;19.50;82.30
16503;DHT22;53067;48.114;11.694;2022-08-20T02:24:31;19.50;82.10
16503;DHT22;53067;48.114;11.694;2022-08-20T02:26:59;19.50;82.30
16503;DHT22;53067;48.114;11.694;2022-08-20T02:29:27;19.50;82.10
16503;DHT22;53067;48.114;11.694;2022-08-20T02:31:54;19.50;82.10
16503;DHT22;53067;48.114;11.694;2022-08-20T02:34:22;19.50;82.30
16503;DHT22;53067;48.114;11.694;2022-08-20T02:36:49;19.50;82.10
16503;DHT22;53067;48.114;11.694;2022-08-20T02:39:18;19.50;81.90
16503;DHT22;53067;48.114;11.694;2022-08-20T02:41:45;19.60;82.10
16503;DHT22;53067;48.114;11.694;2022-08-20T02:44:13;19.60;82.20
16503;DHT22;53067;48.114;11.694;2022-08-20T02:46:40;19.50;82.10
16503;DHT22;53067;48.114;11.694;2022-08-20T02:49:08;19.50;82.50
16503;DHT22;53067;48.114;11.694;2022-08-20T02:51:35;19.50;82.40
16503;DHT22;53067;48.114;11.694;2022-08-20T02:54:22;19.50;82.50
16503;DHT22;53067;48.114;11.694;2022-08-20T02:56:53;19.50;82.30
16503;DHT22;53067;48.114;11.694;2022-08-20T02:59:20;19.50;82.50
16503;DHT22;53067;48.114;11.694;2022-08-20T03:01:48;19.50;82.60
16503;DHT22;53067;48.114;11.694;2022-08-20T03:04:17;19.50;82.60
16503;DHT22;53067;48.114;11.694;2022-08-20T03:06:45;19.50;82.70
16503;DHT22;53067;48.114;11.694;2022-08-20T03:09:12;19.50;82.50
16503;DHT22;53067;48.114;11.694;2022-08-20T03:11:40;19.50;82.50
16503;DHT22;53067;48.114;11.694;2022-08-20T03:14:08;19.50;82.50
16503;DHT22;53067;48.114;11.694;2022-08-20T03:16:35;19.50;82.50
16503;DHT22;53067;48.114;11.694;2022-08-20T03:19:03;19.50;82.70
16503;DHT22;53067;48.114;11.694;2022-08-20T03:21:30;19.40;82.80
16503;DHT22;53067;48.114;11.694;2022-08-20T03:23:58;19.40;82.90
16503;DHT22;53067;48.114;11.694;2022-08-20T03:26:26;19.40;83.00
16503;DHT22;53067;48.114;11.694;2022-08-20T03:28:53;19.40;83.80
16503;DHT22;53067;48.114;11.694;2022-08-20T03:31:21;19.40;83.10
16503;DHT22;53067;48.114;11.694;2022-08-20T03:33:48;19.40;83.20
16503;DHT22;53067;48.114;11.694;2022-08-20T03:36:16;19.40;83.30
16503;DHT22;53067;48.114;11.694;2022-08-20T03:38:44;19.40;83.30
16503;DHT22;53067;48.114;11.694;2022-08-20T03:41:12;19.40;83.30
16503;DHT22;53067;48.114;11.694;2022-08-20T03:43:39;19.40;83.10
16503;DHT22;53067;48.114;11.694;2022-08-20T03:46:07;19.40;83.30
16503;DHT22;53067;48.114;11.694;2022-08-20T03:48:35;19.40;83.40
16503;DHT22;53067;48.114;11.694;2022-08-20T03:51:03;19.40;83.20
16503;DHT22;53067;48.114;11.694;2022-08-20T03:53:30;19.40;83.10
16503;DHT22;53067;48.114;11.694;2022-08-20T03:56:17;19.40;83.40
16503;DHT22;53067;48.114;11.694;2022-08-20T03:58:45;19.40;83.30
16503;DHT22;53067;48.114;11.694;2022-08-20T04:01:13;19.40;83.50
16503;DHT22;53067;48.114;11.694;2022-08-20T04:03:40;19.40;83.60
16503;DHT22;53067;48.114;11.694;2022-08-20T04:06:08;19.40;83.70
16503;DHT22;53067;48.114;11.694;2022-08-20T04:08:35;19.40;83.50
16503;DHT22;53067;48.114;11.694;2022-08-20T04:11:05;19.40;84.40
16503;DHT22;53067;48.114;11.694;2022-08-20T04:13:32;19.40;83.40
16503;DHT22;53067;48.114;11.694;2022-08-20T04:18:48;19.40;83.60
16503;DHT22;53067;48.114;11.694;2022-08-20T04:21:16;19.40;83.60
16503;DHT22;53067;48.114;11.694;2022-08-20T04:23:43;19.40;83.70
16503;DHT22;53067;48.114;11.694;2022-08-20T04:26:11;19.40;83.70
16503;DHT22;53067;48.114;11.694;2022-08-20T04:28:38;19.40;83.60
16503;DHT22;53067;48.114;11.694;2022-08-20T04:31:06;19.40;83.60
16503;DHT22;53067;48.114;11.694;2022-08-20T04:33:33;19.50;83.40
16503;DHT22;53067;48.114;11.694;2022-08-20T04:36:02;19.50;83.10
16503;DHT22;53067;48.114;11.694;2022-08-20T04:38:31;19.40;83.20
16503;DHT22;53067;48.114;11.694;2022-08-20T04:40:58;19.40;83.20
16503;DHT22;53067;48.114;11.694;2022-08-20T04:43:32;19.40;83.30
16503;DHT22;53067;48.114;11.694;2022-08-20T04:46:03;19.40;83.40
16503;DHT22;53067;48.114;11.694;2022-08-20T04:48:31;19.40;83.30
16503;DHT22;53067;48.114;11.694;2022-08-20T04:50:59;19.40;83.60
16503;DHT22;53067;48.114;11.694;2022-08-20T04:53:28;19.40;84.30
16503;DHT22;53067;48.114;11.694;2022-08-20T04:55:58;19.40;83.50
16503;DHT22;53067;48.114;11.694;2022-08-20T04:58:29;19.30;83.40
16503;DHT22;53067;48.114;11.694;2022-08-20T05:01:02;19.30;83.60
16503;DHT22;53067;48.114;11.694;2022-08-20T05:03:29;19.30;83.60
16503;DHT22;53067;48.114;11.694;2022-08-20T05:05:58;19.30;83.80
16503;DHT22;53067;48.114;11.694;2022-08-20T05:08:27;19.30;83.70
16503;DHT22;53067;48.114;11.694;2022-08-20T05:10:55;19.30;83.60
16503;DHT22;53067;48.114;11.694;2022-08-20T05:13:25;19.30;83.60
16503;DHT22;53067;48.114;11.694;2022-08-20T05:15:53;19.30;83.80
16503;DHT22;53067;48.114;11.694;2022-08-20T05:18:23;19.30;83.90
16503;DHT22;53067;48.114;11.694;2022-08-20T05:20:52;19.30;83.90
16503;DHT22;53067;48.114;11.694;2022-08-20T05:23:20;19.30;83.80
16503;DHT22;53067;48.114;11.694;2022-08-20T05:25:49;19.30;83.70
16503;DHT22;53067;48.114;11.694;2022-08-20T05:28:25;19.30;83.70
16503;DHT22;53067;48.114;11.694;2022-08-20T05:30:55;19.30;83.90
16503;DHT22;53067;48.114;11.694;2022-08-20T05:33:22;19.30;83.90
16503;DHT22;53067;48.114;11.694;2022-08-20T05:35:52;19.30;83.60
16503;DHT22;53067;48.114;11.694;2022-08-20T05:38:22;19.40;83.80
16503;DHT22;53067;48.114;11.694;2022-08-20T05:40:51;19.40;83.30
16503;DHT22;53067;48.114;11.694;2022-08-20T05:43:19;19.40;83.40
16503;DHT22;53067;48.114;11.694;2022-08-20T05:45:48;19.40;83.60
16503;DHT22;53067;48.114;11.694;2022-08-20T05:48:23;19.40;83.20
16503;DHT22;53067;48.114;11.694;2022-08-20T05:50:52;19.40;83.10
16503;DHT22;53067;48.114;11.694;2022-08-20T05:53:21;19.30;83.40
16503;DHT22;53067;48.114;11.694;2022-08-20T05:55:49;19.30;83.80
16503;DHT22;53067;48.114;11.694;2022-08-20T05:58:20;19.30;83.60
16503;DHT22;53067;48.114;11.694;2022-08-20T06:00:49;19.40;83.50
16503;DHT22;53067;48.114;11.694;2022-08-20T06:03:17;19.40;83.40
16503;DHT22;53067;48.114;11.694;2022-08-20T06:06:03;19.50;83.10
16503;DHT22;53067;48.114;11.694;2022-08-20T06:08:31;19.50;83.40
16503;DHT22;53067;48.114;11.694;2022-08-20T06:10:59;19.50;83.00
16503;DHT22;53067;48.114;11.694;2022-08-20T06:13:26;19.50;83.10
16503;DHT22;53067;48.114;11.694;2022-08-20T06:15:55;19.50;83.20
16503;DHT22;53067;48.114;11.694;2022-08-20T06:18:23;19.60;83.00
16503;DHT22;53067;48.114;11.694;2022-08-20T06:20:51;19.60;82.80
16503;DHT22;53067;48.114;11.694;2022-08-20T06:23:19;19.60;82.40
16503;DHT22;53067;48.114;11.694;2022-08-20T06:25:48;19.60;82.30
16503;DHT22;53067;48.114;11.694;2022-08-20T06:28:17;19.60;82.60
16503;DHT22;53067;48.114;11.694;2022-08-20T06:30:44;19.60;82.60
16503;DHT22;53067;48.114;11.694;2022-08-20T06:33:12;19.70;82.90
16503;DHT22;53067;48.114;11.694;2022-08-20T06:35:40;19.70;82.20
16503;DHT22;53067;48.114;11.694;2022-08-20T06:38:09;19.70;82.40
16503;DHT22;53067;48.114;11.694;2022-08-20T06:40:38;19.80;82.00
16503;DHT22;53067;48.114;11.694;2022-08-20T06:43:06;19.80;82.00
16503;DHT22;53067;48.114;11.694;2022-08-20T06:45:36;19.80;81.80
16503;DHT22;53067;48.114;11.694;2022-08-20T06:48:09;19.80;81.70
16503;DHT22;53067;48.114;11.694;2022-08-20T06:50:42;19.80;81.80
16503;DHT22;53067;48.114;11.694;2022-08-20T06:53:10;19.80;81.60
16503;DHT22;53067;48.114;11.694;2022-08-20T06:55:52;19.90;81.70
16503;DHT22;53067;48.114;11.694;2022-08-20T06:58:09;19.90;81.60
16503;DHT22;53067;48.114;11.694;2022-08-20T07:00:39;20.00;81.50
16503;DHT22;53067;48.114;11.694;2022-08-20T07:03:09;20.00;81.30
16503;DHT22;53067;48.114;11.694;2022-08-20T07:05:38;20.00;81.00
16503;DHT22;53067;48.114;11.694;2022-08-20T07:08:13;20.10;80.80
16503;DHT22;53067;48.114;11.694;2022-08-20T07:10:41;20.10;80.40
16503;DHT22;53067;48.114;11.694;2022-08-20T07:13:10;20.10;80.30
16503;DHT22;53067;48.114;11.694;2022-08-20T07:15:38;20.00;80.60
16503;DHT22;53067;48.114;11.694;2022-08-20T07:18:06;20.10;80.90
16503;DHT22;53067;48.114;11.694;2022-08-20T07:20:35;20.10;80.20
16503;DHT22;53067;48.114;11.694;2022-08-20T07:23:05;20.10;79.80
16503;DHT22;53067;48.114;11.694;2022-08-20T07:25:34;20.10;79.90
16503;DHT22;53067;48.114;11.694;2022-08-20T07:28:04;20.10;80.10
16503;DHT22;53067;48.114;11.694;2022-08-20T07:30:32;20.10;80.40
16503;DHT22;53067;48.114;11.694;2022-08-20T07:33:18;20.10;80.20
16503;DHT22;53067;48.114;11.694;2022-08-20T07:35:46;20.10;79.90
16503;DHT22;53067;48.114;11.694;2022-08-20T07:38:17;20.10;80.10
16503;DHT22;53067;48.114;11.694;2022-08-20T07:40:51;20.10;79.70
16503;DHT22;53067;48.114;11.694;2022-08-20T07:43:19;20.10;79.90
16503;DHT22;53067;48.114;11.694;2022-08-20T07:45:50;20.10;80.10
16503;DHT22;53067;48.114;11.694;2022-08-20T07:48:19;20.10;80.10
16503;DHT22;53067;48.114;11.694;2022-08-20T07:50:47;20.20;80.20
16503;DHT22;53067;48.114;11.694;2022-08-20T07:53:15;20.20;80.50
16503;DHT22;53067;48.114;11.694;2022-08-20T07:55:43;20.30;80.20
16503;DHT22;53067;48.114;11.694;2022-08-20T07:58:13;20.30;80.10
16503;DHT22;53067;48.114;11.694;2022-08-20T08:00:41;20.40;79.90
16503;DHT22;53067;48.114;11.694;2022-08-20T08:03:09;20.30;79.50
16503;DHT22;53067;48.114;11.694;2022-08-20T08:05:40;20.30;80.00
16503;DHT22;53067;48.114;11.694;2022-08-20T08:08:11;20.40;80.00
16503;DHT22;53067;48.114;11.694;2022-08-20T08:10:41;20.40;79.40
16503;DHT22;53067;48.114;11.694;2022-08-20T08:13:10;20.30;79.50
16503;DHT22;53067;48.114;11.694;2022-08-20T08:18:40;20.30;80.20
16503;DHT22;53067;48.114;11.694;2022-08-20T08:21:06;20.30;79.80
16503;DHT22;53067;48.114;11.694;2022-08-20T08:23:34;20.30;81.10
16503;DHT22;53067;48.114;11.694;2022-08-20T08:26:02;20.30;80.00
16503;DHT22;53067;48.114;11.694;2022-08-20T08:28:29;20.30;79.80
16503;DHT22;53067;48.114;11.694;2022-08-20T08:30:57;20.30;80.00
16503;DHT22;53067;48.114;11.694;2022-08-20T08:33:27;20.30;79.70
16503;DHT22;53067;48.114;11.694;2022-08-20T08:36:04;20.30;79.50
16503;DHT22;53067;48.114;11.694;2022-08-20T08:38:48;20.30;79.90
16503;DHT22;53067;48.114;11.694;2022-08-20T08:41:28;20.20;79.70
16503;DHT22;53067;48.114;11.694;2022-08-20T08:44:01;20.20;80.00
16503;DHT22;53067;48.114;11.694;2022-08-20T08:46:27;20.20;80.20
16503;DHT22;53067;48.114;11.694;2022-08-20T08:48:57;20.30;80.10
16503;DHT22;53067;48.114;11.694;2022-08-20T08:51:36;20.30;79.80
16503;DHT22;53067;48.114;11.694;2022-08-20T08:54:04;20.30;80.00
16503;DHT22;53067;48.114;11.694;2022-08-20T08:56:33;20.30;80.10
16503;DHT22;53067;48.114;11.694;2022-08-20T08:59:04;20.40;80.10
16503;DHT22;53067;48.114;11.694;2022-08-20T09:01:44;20.40;79.40
16503;DHT22;53067;48.114;11.694;2022-08-20T09:04:08;20.40;79.60
16503;DHT22;53067;48.114;11.694;2022-08-20T09:06:55;20.30;80.00
16503;DHT22;53067;48.114;11.694;2022-08-20T09:09:30;20.30;80.20
16503;DHT22;53067;48.114;11.694;2022-08-20T09:12:11;20.30;80.50
16503;DHT22;53067;48.114;11.694;2022-08-20T09:14:34;20.30;81.00
16503;DHT22;53067;48.114;11.694;2022-08-20T09:17:02;20.30;80.60
16503;DHT22;53067;48.114;11.694;2022-08-20T09:19:30;20.30;80.50
16503;DHT22;53067;48.114;11.694;2022-08-20T09:21:58;20.30;81.40
16503;DHT22;53067;48.114;11.694;2022-08-20T09:24:27;20.30;81.20
16503;DHT22;53067;48.114;11.694;2022-08-20T09:26:55;20.30;80.90
16503;DHT22;53067;48.114;11.694;2022-08-20T09:29:22;20.30;81.30
16503;DHT22;53067;48.114;11.694;2022-08-20T09:31:50;20.30;81.50
16503;DHT22;53067;48.114;11.694;2022-08-20T09:34:17;20.40;81.40
16503;DHT22;53067;48.114;11.694;2022-08-20T09:36:45;20.40;81.10
16503;DHT22;53067;48.114;11.694;2022-08-20T09:39:12;20.40;80.90
16503;DHT22;53067;48.114;11.694;2022-08-20T09:41:41;20.40;80.80
16503;DHT22;53067;48.114;11.694;2022-08-20T09:44:08;20.40;81.10
16503;DHT22;53067;48.114;11.694;2022-08-20T09:46:36;20.40;81.10
16503;DHT22;53067;48.114;11.694;2022-08-20T09:49:04;20.50;81.30
16503;DHT22;53067;48.114;11.694;2022-08-20T09:51:32;20.50;81.10
16503;DHT22;53067;48.114;11.694;2022-08-20T09:54:00;20.50;81.00
16503;DHT22;53067;48.114;11.694;2022-08-20T09:56:29;20.50;81.50
16503;DHT22;53067;48.114;11.694;2022-08-20T09:58:58;20.50;81.00
16503;DHT22;53067;48.114;11.694;2022-08-20T10:01:25;20.50;80.80
16503;DHT22;53067;48.114;11.694;2022-08-20T10:03:53;20.50;81.10
16503;DHT22;53067;48.114;11.694;2022-08-20T10:06:20;20.50;81.20
16503;DHT22;53067;48.114;11.694;2022-08-20T10:08:49;20.60;81.60
16503;DHT22;53067;48.114;11.694;2022-08-20T10:11:18;20.60;81.50
16503;DHT22;53067;48.114;11.694;2022-08-20T10:13:46;20.70;81.50
16503;DHT22;53067;48.114;11.694;2022-08-20T10:16:13;20.70;80.90
16503;DHT22;53067;48.114;11.694;2022-08-20T10:18:41;20.70;81.00
16503;DHT22;53067;48.114;11.694;2022-08-20T10:21:10;20.80;81.40
16503;DHT22;53067;48.114;11.694;2022-08-20T10:23:38;20.80;81.10
16503;DHT22;53067;48.114;11.694;2022-08-20T10:26:07;20.80;80.50
16503;DHT22;53067;48.114;11.694;2022-08-20T10:28:35;20.80;80.40
16503;DHT22;53067;48.114;11.694;2022-08-20T10:31:06;20.80;79.60
16503;DHT22;53067;48.114;11.694;2022-08-20T10:33:33;20.80;79.50
16503;DHT22;53067;48.114;11.694;2022-08-20T10:36:09;20.80;79.90
16503;DHT22;53067;48.114;11.694;2022-08-20T10:38:37;20.80;80.10
16503;DHT22;53067;48.114;11.694;2022-08-20T10:41:05;20.90;80.50
16503;DHT22;53067;48.114;11.694;2022-08-20T10:43:33;21.00;80.30
16503;DHT22;53067;48.114;11.694;2022-08-20T10:46:01;21.10;80.10
16503;DHT22;53067;48.114;11.694;2022-08-20T10:48:29;21.20;79.80
16503;DHT22;53067;48.114;11.694;2022-08-20T10:50:56;21.20;79.80
16503;DHT22;53067;48.114;11.694;2022-08-20T10:53:24;21.30;79.70
16503;DHT22;53067;48.114;11.694;2022-08-20T10:55:53;21.30;79.50
16503;DHT22;53067;48.114;11.694;2022-08-20T10:58:21;21.30;79.20
16503;DHT22;53067;48.114;11.694;2022-08-20T11:00:49;21.40;79.40
16503;DHT22;53067;48.114;11.694;2022-08-20T11:03:17;21.50;77.50
16503;DHT22;53067;48.114;11.694;2022-08-20T11:05:45;21.50;78.10
16503;DHT22;53067;48.114;11.694;2022-08-20T11:08:13;21.50;79.40
16503;DHT22;53067;48.114;11.694;2022-08-20T11:10:41;21.60;78.60
16503;DHT22;53067;48.114;11.694;2022-08-20T11:13:09;21.60;77.60
16503;DHT22;53067;48.114;11.694;2022-08-20T11:15:40;21.70;77.60
16503;DHT22;53067;48.114;11.694;2022-08-20T11:18:09;21.70;77.90
16503;DHT22;53067;48.114;11.694;2022-08-20T11:20:37;21.70;78.60
16503;DHT22;53067;48.114;11.694;2022-08-20T11:23:04;21.80;78.80
16503;DHT22;53067;48.114;11.694;2022-08-20T11:25:32;21.80;78.80
16503;DHT22;53067;48.114;11.694;2022-08-20T11:27:59;21.90;78.80
16503;DHT22;53067;48.114;11.694;2022-08-20T11:30:31;22.00;78.50
16503;DHT22;53067;48.114;11.694;2022-08-20T11:33:00;22.00;78.10
16503;DHT22;53067;48.114;11.694;2022-08-20T11:35:29;22.00;78.20
16503;DHT22;53067;48.114;11.694;2022-08-20T11:37:58;22.00;77.70
16503;DHT22;53067;48.114;11.694;2022-08-20T11:40:28;22.00;77.20
16503;DHT22;53067;48.114;11.694;2022-08-20T11:42:57;22.00;77.60
16503;DHT22;53067;48.114;11.694;2022-08-20T11:45:24;22.00;77.40
16503;DHT22;53067;48.114;11.694;2022-08-20T11:47:52;22.00;77.50
16503;DHT22;53067;48.114;11.694;2022-08-20T11:50:20;22.00;77.60
16503;DHT22;53067;48.114;11.694;2022-08-20T11:52:48;22.00;78.30
16503;DHT22;53067;48.114;11.694;2022-08-20T11:55:16;22.00;77.90
16503;DHT22;53067;48.114;11.694;2022-08-20T11:57:46;22.10;77.60
16503;DHT22;53067;48.114;11.694;2022-08-20T12:00:17;22.10;77.70
16503;DHT22;53067;48.114;11.694;2022-08-20T12:02:44;22.10;77.40
16503;DHT22;53067;48.114;11.694;2022-08-20T12:05:12;22.10;77.40
16503;DHT22;53067;48.114;11.694;2022-08-20T12:07:39;22.10;77.20
16503;DHT22;53067;48.114;11.694;2022-08-20T12:10:08;22.10;77.20
16503;DHT22;53067;48.114;11.694;2022-08-20T12:12:37;22.10;77.30
16503;DHT22;53067;48.114;11.694;2022-08-20T12:15:06;22.10;77.40
16503;DHT22;53067;48.114;11.694;2022-08-20T12:17:35;22.10;77.80
16503;DHT22;53067;48.114;11.694;2022-08-20T12:20:08;22.10;77.80
16503;DHT22;53067;48.114;11.694;2022-08-20T12:22:34;22.10;77.40
16503;DHT22;53067;48.114;11.694;2022-08-20T12:25:02;22.10;77.60
16503;DHT22;53067;48.114;11.694;2022-08-20T12:27:30;22.20;77.80
16503;DHT22;53067;48.114;11.694;2022-08-20T12:30:01;22.20;78.00
16503;DHT22;53067;48.114;11.694;2022-08-20T12:32:30;22.30;77.90
16503;DHT22;53067;48.114;11.694;2022-08-20T12:34:58;22.30;77.50
16503;DHT22;53067;48.114;11.694;2022-08-20T12:37:28;22.40;77.40
16503;DHT22;53067;48.114;11.694;2022-08-20T12:39:58;22.40;77.00
16503;DHT22;53067;48.114;11.694;2022-08-20T12:42:27;22.40;76.90
16503;DHT22;53067;48.114;11.694;2022-08-20T12:44:58;22.50;77.00
16503;DHT22;53067;48.114;11.694;2022-08-20T12:47:30;22.50;76.40
16503;DHT22;53067;48.114;11.694;2022-08-20T12:50:08;22.50;76.30
16503;DHT22;53067;48.114;11.694;2022-08-20T12:52:31;22.50;76.30
16503;DHT22;53067;48.114;11.694;2022-08-20T12:54:59;22.50;75.70
16503;DHT22;53067;48.114;11.694;2022-08-20T12:57:38;22.50;75.40
16503;DHT22;53067;48.114;11.694;2022-08-20T13:00:10;22.50;75.60
16503;DHT22;53067;48.114;11.694;2022-08-20T13:02:38;22.60;74.90
16503;DHT22;53067;48.114;11.694;2022-08-20T13:05:08;22.70;74.70
16503;DHT22;53067;48.114;11.694;2022-08-20T13:10:31;22.90;73.40
16503;DHT22;53067;48.114;11.694;2022-08-20T13:12:55;22.90;73.10
16503;DHT22;53067;48.114;11.694;2022-08-20T13:15:23;23.00;72.40
16503;DHT22;53067;48.114;11.694;2022-08-20T13:17:56;23.00;72.40
16503;DHT22;53067;48.114;11.694;2022-08-20T13:20:25;23.10;72.10
16503;DHT22;53067;48.114;11.694;2022-08-20T13:22:53;23.10;72.00
16503;DHT22;53067;48.114;11.694;2022-08-20T13:25:21;23.20;71.80
16503;DHT22;53067;48.114;11.694;2022-08-20T13:27:53;23.20;71.70
16503;DHT22;53067;48.114;11.694;2022-08-20T13:30:19;23.20;71.20
16503;DHT22;53067;48.114;11.694;2022-08-20T13:32:47;23.20;71.30
16503;DHT22;53067;48.114;11.694;2022-08-20T13:35:14;23.20;70.80
16503;DHT22;53067;48.114;11.694;2022-08-20T13:37:42;23.20;70.60
16503;DHT22;53067;48.114;11.694;2022-08-20T13:40:10;23.20;70.20
16503;DHT22;53067;48.114;11.694;2022-08-20T13:42:43;23.30;70.40
16503;DHT22;53067;48.114;11.694;2022-08-20T13:45:11;23.30;70.60
16503;DHT22;53067;48.114;11.694;2022-08-20T13:47:40;23.40;70.80
16503;DHT22;53067;48.114;11.694;2022-08-20T13:50:11;23.50;69.80
16503;DHT22;53067;48.114;11.694;2022-08-20T13:52:39;23.60;69.40
16503;DHT22;53067;48.114;11.694;2022-08-20T13:55:08;23.60;68.20
16503;DHT22;53067;48.114;11.694;2022-08-20T13:57:36;23.70;67.20
16503;DHT22;53067;48.114;11.694;2022-08-20T14:02:53;24.00;67.10
16503;DHT22;53067;48.114;11.694;2022-08-20T14:05:21;24.10;66.60
16503;DHT22;53067;48.114;11.694;2022-08-20T14:07:49;24.20;65.40
16503;DHT22;53067;48.114;11.694;2022-08-20T14:10:19;24.40;65.30
16503;DHT22;53067;48.114;11.694;2022-08-20T14:12:50;24.50;64.50
16503;DHT22;53067;48.114;11.694;2022-08-20T14:15:17;24.60;64.20
16503;DHT22;53067;48.114;11.694;2022-08-20T14:17:51;24.60;63.70
16503;DHT22;53067;48.114;11.694;2022-08-20T14:20:24;24.60;63.10
16503;DHT22;53067;48.114;11.694;2022-08-20T14:22:49;24.60;62.90
16503;DHT22;53067;48.114;11.694;2022-08-20T14:25:18;24.60;62.50
16503;DHT22;53067;48.114;11.694;2022-08-20T14:27:46;24.40;62.30
16503;DHT22;53067;48.114;11.694;2022-08-20T14:30:16;24.40;62.80
16503;DHT22;53067;48.114;11.694;2022-08-20T14:32:44;24.20;63.50
16503;DHT22;53067;48.114;11.694;2022-08-20T14:35:12;24.10;64.20
16503;DHT22;53067;48.114;11.694;2022-08-20T14:37:48;24.00;64.40
16503;DHT22;53067;48.114;11.694;2022-08-20T14:40:23;23.90;64.30
16503;DHT22;53067;48.114;11.694;2022-08-20T14:42:51;23.70;63.30
16503;DHT22;53067;48.114;11.694;2022-08-20T14:45:20;23.50;63.00
16503;DHT22;53067;48.114;11.694;2022-08-20T14:47:55;23.30;63.30
16503;DHT22;53067;48.114;11.694;2022-08-20T14:50:28;23.10;63.30
16503;DHT22;53067;48.114;11.694;2022-08-20T14:52:56;22.90;63.80
16503;DHT22;53067;48.114;11.694;2022-08-20T14:55:27;22.70;64.50
16503;DHT22;53067;48.114;11.694;2022-08-20T14:57:55;22.60;64.80
16503;DHT22;53067;48.114;11.694;2022-08-20T15:00:28;22.40;66.20
16503;DHT22;53067;48.114;11.694;2022-08-20T15:02:56;22.30;68.60
16503;DHT22;53067;48.114;11.694;2022-08-20T15:05:24;22.20;69.20
16503;DHT22;53067;48.114;11.694;2022-08-20T15:07:52;22.30;71.00
16503;DHT22;53067;48.114;11.694;2022-08-20T15:10:22;22.20;70.90
16503;DHT22;53067;48.114;11.694;2022-08-20T15:12:50;22.20;70.80
16503;DHT22;53067;48.114;11.694;2022-08-20T15:15:18;22.10;71.40
16503;DHT22;53067;48.114;11.694;2022-08-20T15:17:48;22.10;72.70
16503;DHT22;53067;48.114;11.694;2022-08-20T15:20:18;21.90;74.40
16503;DHT22;53067;48.114;11.694;2022-08-20T15:22:48;21.70;75.00
16503;DHT22;53067;48.114;11.694;2022-08-20T15:25:18;21.60;75.50
16503;DHT22;53067;48.114;11.694;2022-08-20T15:27:46;21.30;74.40
16503;DHT22;53067;48.114;11.694;2022-08-20T15:30:19;21.00;74.70
16503;DHT22;53067;48.114;11.694;2022-08-20T15:32:48;20.80;73.50
16503;DHT22;53067;48.114;11.694;2022-08-20T15:35:17;20.50;74.90
16503;DHT22;53067;48.114;11.694;2022-08-20T15:37:47;20.40;75.90
16503;DHT22;53067;48.114;11.694;2022-08-20T15:40:18;20.30;76.60
16503;DHT22;53067;48.114;11.694;2022-08-20T15:42:46;20.20;77.30
16503;DHT22;53067;48.114;11.694;2022-08-20T15:45:15;20.20;77.40